Terminal Aerodrome Forecast
Issued by NWS Charleston, WV

Current Version | Previous Version | Graphics & Text | Print | Product List | Glossary On
Versions: 1 2 3 4 5 6 7 8 9 10 11 12 13 14 15 16 17 18 19 20 21 22 23
091
FTUS41 KRLX 030538
TAFCRW
TAF
KCRW 030538Z 0306/0406 16015G25KT P6SM BKN100
     FM031000 17014G23KT 6SM SHRA BKN060
     FM031200 20009G19KT 3SM SHRA OVC025
     FM031500 19006KT 6SM SHRA BKN015
     FM031700 21007KT P6SM BKN025
     FM031900 21009G15KT P6SM BKN040
     FM032300 23008KT P6SM FEW040=

USA.gov is the U.S. government's official web portal to all federal, state and local government web resources and services.